Time;durP1;ratioP1;P1;durP2;ratioP2;P2;SDS_P1;SDS_P2;PMS_P1;PMS_P2;Temp;Humidity;BMP_temperature;BMP_pressure;BME280_temperature;BME280_humidity;BME280_pressure;Samples;Min_cycle;Max_cycle;Signal;HPM_P1;HPM_P2
2022/12/02 00:01:15;;;;;;;5.53;3.15;;;;;;;;;;5063979;28;20089;-75
2022/12/02 00:03:41;;;;;;;5.80;1.75;;;;;;;;;;5061223;28;20016;-76
2022/12/02 00:06:15;;;;;;;2.67;1.60;;;;;;;;;;5063182;28;20039;-76
2022/12/02 00:08:41;;;;;;;3.10;1.73;;;;;;;;;;5065912;28;20119;-77
2022/12/02 00:11:25;;;;;;;3.72;1.60;;;;;;;;;;5067235;28;20085;-78
2022/12/02 00:13:52;;;;;;;4.60;1.88;;;;;;;;;;5063584;28;20044;-77
2022/12/02 00:16:22;;;;;;;4.72;1.90;;;;;;;;;;5068103;28;20095;-77
2022/12/02 00:18:49;;;;;;;5.30;2.88;;;;;;;;;;5070771;28;20036;-77
2022/12/02 00:21:15;;;;;;;3.50;1.80;;;;;;;;;;5065877;28;20035;-78
2022/12/02 00:23:41;;;;;;;4.68;2.10;;;;;;;;;;5055897;28;20036;-78
2022/12/02 00:26:08;;;;;;;3.15;1.92;;;;;;;;;;5065629;28;20032;-77
2022/12/02 00:28:34;;;;;;;4.63;1.60;;;;;;;;;;5066296;28;20025;-77
2022/12/02 00:31:00;;;;;;;5.00;1.88;;;;;;;;;;5067616;28;20467;-77
2022/12/02 00:33:26;;;;;;;3.30;1.90;;;;;;;;;;5076746;28;20058;-78
2022/12/02 00:35:52;;;;;;;2.80;2.03;;;;;;;;;;5065166;28;20390;-78
2022/12/02 00:38:18;;;;;;;4.32;1.60;;;;;;;;;;5075031;28;20028;-78
2022/12/02 00:40:45;;;;;;;4.15;1.63;;;;;;;;;;5065490;28;20032;-78
2022/12/02 00:48:40;;;;;;;3.88;2.13;;;;;;;;;;5061334;28;20058;-77
2022/12/02 00:51:07;;;;;;;5.57;2.50;;;;;;;;;;5065939;28;20030;-77
2022/12/02 00:53:33;;;;;;;7.15;2.47;;;;;;;;;;5064548;28;20029;-78
2022/12/02 00:55:59;;;;;;;4.57;2.15;;;;;;;;;;5065532;28;20039;-76
2022/12/02 00:58:26;;;;;;;8.80;2.30;;;;;;;;;;5057520;28;20124;-77
2022/12/02 01:00:52;;;;;;;5.80;2.20;;;;;;;;;;5067475;28;20036;-78
2022/12/02 01:03:18;;;;;;;3.20;2.30;;;;;;;;;;5067412;28;20032;-76
2022/12/02 01:05:44;;;;;;;5.18;2.47;;;;;;;;;;5065074;28;20098;-76
2022/12/02 01:08:10;;;;;;;2.90;1.83;;;;;;;;;;5057715;28;20033;-76
2022/12/02 01:10:36;;;;;;;2.70;1.77;;;;;;;;;;5066900;28;20020;-76
2022/12/02 01:13:02;;;;;;;3.95;1.58;;;;;;;;;;5067507;28;20088;-77
2022/12/02 01:15:29;;;;;;;5.13;2.00;;;;;;;;;;5061157;28;20032;-76
2022/12/02 01:17:55;;;;;;;3.88;2.30;;;;;;;;;;5066024;28;20024;-75
2022/12/02 01:20:21;;;;;;;3.35;1.55;;;;;;;;;;5067146;28;20034;-76
2022/12/02 01:22:47;;;;;;;3.08;1.83;;;;;;;;;;5066240;28;20039;-76
2022/12/02 01:25:13;;;;;;;4.97;2.08;;;;;;;;;;5066542;28;20075;-77
2022/12/02 01:27:39;;;;;;;5.38;2.22;;;;;;;;;;5070915;28;20032;-77
2022/12/02 01:30:06;;;;;;;7.40;2.20;;;;;;;;;;5066821;28;20407;-76
2022/12/02 01:32:32;;;;;;;3.80;2.15;;;;;;;;;;5066703;28;20021;-76
2022/12/02 01:34:58;;;;;;;7.78;2.60;;;;;;;;;;5071836;28;20024;-77
2022/12/02 01:37:24;;;;;;;3.45;2.33;;;;;;;;;;5068811;28;20032;-76
2022/12/02 01:39:50;;;;;;;7.15;2.92;;;;;;;;;;5067820;28;20036;-76
2022/12/02 01:42:16;;;;;;;4.15;2.40;;;;;;;;;;5065451;28;20033;-76
2022/12/02 01:44:43;;;;;;;3.75;2.40;;;;;;;;;;5075898;28;20043;-77
2022/12/02 01:47:09;;;;;;;4.32;2.35;;;;;;;;;;5066969;28;20039;-76
2022/12/02 01:49:35;;;;;;;5.25;2.63;;;;;;;;;;5066819;28;20038;-77
2022/12/02 01:52:01;;;;;;;4.82;2.40;;;;;;;;;;5070839;28;20031;-77
2022/12/02 01:54:28;;;;;;;5.80;2.10;;;;;;;;;;5068837;28;20063;-76
2022/12/02 01:56:54;;;;;;;3.88;2.70;;;;;;;;;;5065740;28;20024;-76
2022/12/02 01:59:21;;;;;;;4.45;2.63;;;;;;;;;;5068072;28;20013;-76
2022/12/02 02:01:47;;;;;;;7.43;3.03;;;;;;;;;;5059675;28;20047;-77
2022/12/02 02:04:14;;;;;;;4.65;2.25;;;;;;;;;;5057647;28;20477;-76
2022/12/02 02:06:45;;;;;;;4.18;2.55;;;;;;;;;;5057846;28;20113;-77
2022/12/02 02:09:11;;;;;;;4.35;2.67;;;;;;;;;;5066738;28;20039;-76
2022/12/02 02:11:38;;;;;;;4.60;2.50;;;;;;;;;;5071482;28;20031;-77
2022/12/02 02:14:05;;;;;;;5.32;2.75;;;;;;;;;;5064122;28;20012;-77
2022/12/02 02:16:31;;;;;;;3.75;2.55;;;;;;;;;;5065091;28;20047;-76
2022/12/02 02:18:58;;;;;;;6.80;2.67;;;;;;;;;;5065344;28;20042;-77
2022/12/02 02:21:27;;;;;;;6.90;2.75;;;;;;;;;;5063424;28;20044;-77
2022/12/02 02:23:53;;;;;;;4.25;2.42;;;;;;;;;;5053804;28;20031;-77
2022/12/02 02:26:19;;;;;;;8.65;2.72;;;;;;;;;;5063193;28;20028;-77
2022/12/02 02:28:46;;;;;;;4.32;2.45;;;;;;;;;;5060861;28;20024;-76
2022/12/02 02:31:12;;;;;;;4.28;2.15;;;;;;;;;;5061768;28;20021;-76
2022/12/02 02:33:38;;;;;;;4.32;2.53;;;;;;;;;;5059931;28;20027;-76
2022/12/02 02:36:04;;;;;;;3.55;2.10;;;;;;;;;;5058460;28;20025;-76
2022/12/02 02:38:31;;;;;;;4.72;2.25;;;;;;;;;;5055189;28;20039;-76
2022/12/02 02:40:57;;;;;;;5.93;2.20;;;;;;;;;;5062651;28;20108;-78
2022/12/02 02:43:24;;;;;;;5.78;2.38;;;;;;;;;;5064812;28;20039;-77
2022/12/02 02:45:51;;;;;;;5.35;2.15;;;;;;;;;;5064907;28;20473;-77
2022/12/02 02:48:18;;;;;;;3.58;2.25;;;;;;;;;;5057995;28;20028;-78
2022/12/02 02:50:45;;;;;;;3.35;2.58;;;;;;;;;;5061178;28;20047;-78
2022/12/02 02:53:13;;;;;;;5.50;2.08;;;;;;;;;;5065487;28;20741;-77
2022/12/02 02:55:39;;;;;;;4.88;2.42;;;;;;;;;;5060814;28;20111;-76
2022/12/02 02:58:09;;;;;;;4.10;2.40;;;;;;;;;;5056856;28;20083;-77
2022/12/02 03:00:35;;;;;;;5.65;2.70;;;;;;;;;;5059830;28;20025;-77
2022/12/02 03:03:01;;;;;;;3.97;2.63;;;;;;;;;;5056894;28;20543;-75
2022/12/02 03:05:28;;;;;;;3.90;2.33;;;;;;;;;;5060892;28;20039;-77
2022/12/02 03:07:54;;;;;;;4.88;2.33;;;;;;;;;;5056726;28;20017;-76
2022/12/02 03:10:20;;;;;;;3.40;2.05;;;;;;;;;;5055285;28;20036;-77
2022/12/02 03:12:52;;;;;;;3.38;2.25;;;;;;;;;;5063443;28;20068;-76
2022/12/02 03:15:19;;;;;;;4.97;2.30;;;;;;;;;;5069417;28;20037;-75
2022/12/02 03:17:45;;;;;;;2.50;1.75;;;;;;;;;;5058186;28;20046;-76
2022/12/02 03:20:11;;;;;;;3.80;2.47;;;;;;;;;;5057996;28;20036;-74
2022/12/02 03:22:37;;;;;;;4.05;2.70;;;;;;;;;;5059421;28;20041;-75
2022/12/02 03:25:04;;;;;;;7.10;2.50;;;;;;;;;;5056255;28;20491;-75
2022/12/02 03:27:31;;;;;;;5.93;2.75;;;;;;;;;;5058781;28;20032;-74
2022/12/02 03:29:57;;;;;;;4.50;2.17;;;;;;;;;;5073226;28;20579;-74
2022/12/02 03:32:23;;;;;;;6.57;2.40;;;;;;;;;;5055472;28;20095;-75
2022/12/02 03:34:50;;;;;;;3.45;2.08;;;;;;;;;;5059959;28;20406;-76
2022/12/02 03:37:16;;;;;;;5.40;2.40;;;;;;;;;;5072757;28;20025;-75
2022/12/02 03:39:42;;;;;;;4.00;2.38;;;;;;;;;;5063139;28;20060;-75
2022/12/02 03:42:09;;;;;;;6.95;2.35;;;;;;;;;;5070749;28;20060;-75
2022/12/02 03:44:36;;;;;;;7.03;2.70;;;;;;;;;;5061095;28;20023;-75
2022/12/02 03:47:02;;;;;;;3.05;2.22;;;;;;;;;;5055366;28;20520;-75
2022/12/02 03:49:29;;;;;;;3.53;2.40;;;;;;;;;;5059515;28;20044;-74
2022/12/02 03:51:55;;;;;;;3.45;2.83;;;;;;;;;;5071519;28;20626;-75
2022/12/02 03:54:21;;;;;;;3.72;2.58;;;;;;;;;;5059913;28;20029;-75
2022/12/02 03:56:47;;;;;;;6.70;2.22;;;;;;;;;;5075551;28;20040;-76
2022/12/02 03:59:21;;;;;;;5.20;2.60;;;;;;;;;;5062563;28;20024;-75
2022/12/02 04:01:48;;;;;;;5.57;2.58;;;;;;;;;;5060255;28;20590;-75
2022/12/02 04:04:14;;;;;;;3.47;2.15;;;;;;;;;;5065205;28;20411;-74
2022/12/02 04:06:40;;;;;;;4.78;2.40;;;;;;;;;;5063727;28;20041;-77
2022/12/02 04:09:06;;;;;;;4.60;2.25;;;;;;;;;;5065569;28;20064;-76
2022/12/02 04:11:33;;;;;;;4.32;2.47;;;;;;;;;;5063366;28;20351;-76
2022/12/02 04:13:59;;;;;;;13.27;2.28;;;;;;;;;;5073043;28;20035;-77
2022/12/02 04:16:25;;;;;;;3.25;2.30;;;;;;;;;;5051742;28;20039;-76
2022/12/02 04:18:52;;;;;;;4.65;1.95;;;;;;;;;;5054563;28;20046;-76
2022/12/02 04:21:18;;;;;;;4.20;2.40;;;;;;;;;;5055532;28;20047;-76
2022/12/02 04:23:44;;;;;;;3.10;2.28;;;;;;;;;;5057079;28;20086;-77
2022/12/02 04:26:10;;;;;;;2.75;2.03;;;;;;;;;;5053865;28;20028;-77
2022/12/02 04:28:36;;;;;;;5.88;2.45;;;;;;;;;;5054477;28;20028;-76
2022/12/02 04:31:02;;;;;;;5.68;2.20;;;;;;;;;;5058919;28;20036;-77
2022/12/02 04:33:29;;;;;;;3.72;2.15;;;;;;;;;;5056011;28;20031;-75
2022/12/02 04:35:55;;;;;;;6.07;2.03;;;;;;;;;;5058249;28;20123;-76
2022/12/02 04:38:21;;;;;;;4.47;2.22;;;;;;;;;;5057959;28;20051;-77
2022/12/02 04:40:47;;;;;;;4.93;1.98;;;;;;;;;;5064364;28;20147;-76
2022/12/02 04:43:13;;;;;;;2.55;1.92;;;;;;;;;;5062225;28;20494;-77
2022/12/02 04:45:40;;;;;;;4.97;1.90;;;;;;;;;;5055907;28;20025;-77
2022/12/02 04:48:06;;;;;;;5.40;1.92;;;;;;;;;;5055784;28;20042;-77
2022/12/02 04:50:32;;;;;;;3.95;2.25;;;;;;;;;;5059258;28;20045;-77
2022/12/02 04:52:58;;;;;;;4.63;2.42;;;;;;;;;;5061972;28;20059;-76
2022/12/02 04:55:24;;;;;;;5.70;2.00;;;;;;;;;;5055797;28;20051;-77
2022/12/02 04:57:51;;;;;;;8.57;2.15;;;;;;;;;;5061953;28;20032;-76
2022/12/02 05:00:18;;;;;;;2.47;1.88;;;;;;;;;;5057945;28;20020;-77
2022/12/02 05:02:44;;;;;;;3.25;1.67;;;;;;;;;;5058639;28;20100;-77
2022/12/02 05:05:10;;;;;;;3.05;1.67;;;;;;;;;;5058299;28;20024;-77
2022/12/02 05:07:37;;;;;;;2.45;1.60;;;;;;;;;;5052523;28;20106;-77
2022/12/02 05:10:04;;;;;;;7.28;1.58;;;;;;;;;;5054962;28;20027;-77
2022/12/02 05:12:30;;;;;;;5.50;1.70;;;;;;;;;;5055154;28;20029;-76
2022/12/02 05:14:56;;;;;;;2.75;1.48;;;;;;;;;;5055213;28;20021;-77
2022/12/02 05:17:22;;;;;;;4.95;1.55;;;;;;;;;;5056100;28;20040;-76
2022/12/02 05:19:48;;;;;;;2.17;1.40;;;;;;;;;;5063740;28;20475;-76
2022/12/02 05:22:14;;;;;;;5.72;1.33;;;;;;;;;;5058155;28;20028;-76
2022/12/02 05:24:41;;;;;;;2.15;1.48;;;;;;;;;;5055173;28;20047;-76
2022/12/02 05:27:07;;;;;;;4.18;1.65;;;;;;;;;;5053682;28;20029;-76
2022/12/02 05:29:33;;;;;;;2.78;1.60;;;;;;;;;;5060732;28;20021;-76
2022/12/02 05:31:59;;;;;;;3.00;1.65;;;;;;;;;;5059710;28;20024;-76
2022/12/02 05:34:25;;;;;;;4.60;2.00;;;;;;;;;;5056906;28;20021;-77
2022/12/02 05:36:51;;;;;;;3.72;1.85;;;;;;;;;;5053960;28;20024;-76
2022/12/02 05:39:17;;;;;;;2.25;1.35;;;;;;;;;;5054887;28;20024;-76
2022/12/02 05:41:44;;;;;;;3.65;1.35;;;;;;;;;;5054171;28;20040;-76
2022/12/02 05:44:29;;;;;;;3.05;1.83;;;;;;;;;;5055828;28;20170;-77
2022/12/02 05:47:00;;;;;;;2.92;1.33;;;;;;;;;;5052768;28;20038;-77
2022/12/02 05:49:26;;;;;;;3.23;1.63;;;;;;;;;;5053334;28;20683;-76
2022/12/02 05:51:56;;;;;;;4.95;1.67;;;;;;;;;;5051391;28;21166;-76
2022/12/02 05:54:23;;;;;;;2.83;1.70;;;;;;;;;;5050103;28;20677;-77
2022/12/02 05:56:49;;;;;;;2.15;1.35;;;;;;;;;;5051282;28;20079;-77
2022/12/02 05:59:16;;;;;;;3.25;1.42;;;;;;;;;;5061099;28;20020;-77
2022/12/02 06:01:43;;;;;;;2.08;1.38;;;;;;;;;;5058613;28;20044;-75
2022/12/02 06:04:14;;;;;;;5.55;1.30;;;;;;;;;;5056262;28;20048;-75
2022/12/02 06:06:40;;;;;;;3.65;1.52;;;;;;;;;;5053618;28;20067;-75
2022/12/02 06:09:17;;;;;;;2.60;1.45;;;;;;;;;;5059739;28;20023;-75
2022/12/02 06:11:43;;;;;;;4.03;1.55;;;;;;;;;;5068174;28;20065;-74
2022/12/02 06:14:21;;;;;;;2.47;1.38;;;;;;;;;;5049981;28;20051;-74
2022/12/02 06:16:49;;;;;;;5.45;2.28;;;;;;;;;;5064311;28;20035;-74
2022/12/02 06:19:20;;;;;;;2.38;1.30;;;;;;;;;;5053381;28;20024;-74
2022/12/02 06:21:46;;;;;;;2.60;1.45;;;;;;;;;;5056518;28;20032;-74
2022/12/02 06:24:13;;;;;;;4.90;1.67;;;;;;;;;;5058046;28;20028;-75
2022/12/02 06:26:39;;;;;;;6.88;1.60;;;;;;;;;;5055320;28;20021;-74
2022/12/02 06:29:05;;;;;;;2.90;2.08;;;;;;;;;;5054855;28;20077;-75
2022/12/02 06:31:34;;;;;;;2.25;1.20;;;;;;;;;;5050528;28;20025;-74
2022/12/02 06:34:11;;;;;;;4.38;1.20;;;;;;;;;;5054720;28;20028;-74
2022/12/02 06:36:37;;;;;;;3.85;1.70;;;;;;;;;;5059579;28;20024;-73
2022/12/02 06:39:13;;;;;;;4.50;1.70;;;;;;;;;;5053106;28;20088;-73
2022/12/02 06:41:39;;;;;;;5.47;1.40;;;;;;;;;;5056812;28;20093;-74
2022/12/02 06:46:59;;;;;;;9.10;1.38;;;;;;;;;;5058846;28;20047;-74
2022/12/02 06:49:33;;;;;;;3.60;1.45;;;;;;;;;;5051357;28;20082;-73
2022/12/02 06:52:00;;;;;;;2.10;1.48;;;;;;;;;;5058498;28;20029;-74
2022/12/02 06:54:29;;;;;;;2.95;1.70;;;;;;;;;;5055348;28;20016;-74
2022/12/02 06:56:56;;;;;;;3.47;1.52;;;;;;;;;;5054354;28;20121;-74
2022/12/02 06:59:23;;;;;;;4.78;1.65;;;;;;;;;;5067601;28;20077;-74
2022/12/02 07:01:54;;;;;;;4.28;1.60;;;;;;;;;;5055362;28;20039;-73
2022/12/02 07:04:29;;;;;;;4.80;1.60;;;;;;;;;;5061366;28;20027;-74
2022/12/02 07:06:57;;;;;;;2.15;1.30;;;;;;;;;;5057036;28;20090;-74
2022/12/02 07:09:47;;;;;;;3.08;1.55;;;;;;;;;;5057236;28;20146;-74
2022/12/02 07:12:19;;;;;;;6.97;3.15;;;;;;;;;;5052411;28;20100;-74
2022/12/02 07:14:45;;;;;;;;;;;;;;;;;;5056994;28;20559;-73
2022/12/02 07:17:30;;;;;;;4.97;2.40;;;;;;;;;;5058929;28;19967;-73
2022/12/02 07:20:02;;;;;;;5.18;2.90;;;;;;;;;;5059289;28;20025;-74
2022/12/02 07:22:38;;;;;;;5.40;2.35;;;;;;;;;;5058340;28;20021;-74
2022/12/02 07:25:04;;;;;;;3.15;2.08;;;;;;;;;;5060694;28;20131;-74
2022/12/02 07:27:31;;;;;;;3.85;2.58;;;;;;;;;;5058308;28;20019;-74
2022/12/02 07:29:58;;;;;;;7.10;2.88;;;;;;;;;;5062902;28;20037;-74
2022/12/02 07:32:24;;;;;;;5.43;2.53;;;;;;;;;;5058100;28;20035;-74
2022/12/02 07:34:50;;;;;;;7.28;3.30;;;;;;;;;;5061765;28;20028;-74
2022/12/02 07:37:16;;;;;;;4.00;3.40;;;;;;;;;;5057197;28;20462;-74
2022/12/02 07:39:43;;;;;;;9.90;4.28;;;;;;;;;;5059429;28;20066;-73
2022/12/02 07:42:09;;;;;;;6.40;3.65;;;;;;;;;;5057807;28;20025;-74
2022/12/02 07:44:35;;;;;;;7.20;4.30;;;;;;;;;;5063468;28;20016;-74
2022/12/02 07:47:02;;;;;;;9.93;4.45;;;;;;;;;;5063086;28;20077;-74
2022/12/02 07:49:28;;;;;;;6.15;4.10;;;;;;;;;;5056683;28;20048;-74
2022/12/02 07:51:54;;;;;;;5.30;3.85;;;;;;;;;;5062540;28;20118;-74
2022/12/02 07:54:20;;;;;;;6.80;4.80;;;;;;;;;;5060570;28;20096;-74
2022/12/02 07:56:46;;;;;;;9.88;6.55;;;;;;;;;;5066742;28;20032;-74
2022/12/02 07:59:12;;;;;;;12.60;6.50;;;;;;;;;;5062024;28;20016;-74
2022/12/02 08:01:39;;;;;;;8.43;6.43;;;;;;;;;;5079806;28;20056;-74
2022/12/02 08:04:05;;;;;;;6.57;5.22;;;;;;;;;;5064516;28;20024;-74
2022/12/02 08:06:31;;;;;;;7.25;5.38;;;;;;;;;;5064823;28;20020;-74
2022/12/02 08:08:58;;;;;;;7.15;5.03;;;;;;;;;;5063278;28;20020;-73
2022/12/02 08:11:24;;;;;;;6.90;5.15;;;;;;;;;;5062147;28;20013;-74
2022/12/02 08:13:50;;;;;;;9.23;6.47;;;;;;;;;;5059196;28;20029;-74
2022/12/02 08:16:16;;;;;;;10.15;7.15;;;;;;;;;;5060486;28;20507;-74
2022/12/02 08:18:42;;;;;;;17.42;11.20;;;;;;;;;;5058251;28;20029;-74
2022/12/02 08:21:08;;;;;;;13.57;10.07;;;;;;;;;;5065587;28;20028;-74
2022/12/02 08:23:35;;;;;;;19.05;12.95;;;;;;;;;;5058203;28;20253;-78
2022/12/02 08:26:01;;;;;;;14.65;10.07;;;;;;;;;;5060949;28;20021;-77
2022/12/02 08:28:28;;;;;;;15.13;8.85;;;;;;;;;;5060689;28;20519;-75
2022/12/02 08:30:54;;;;;;;11.27;8.20;;;;;;;;;;5060097;28;20440;-74
2022/12/02 08:33:20;;;;;;;11.35;6.78;;;;;;;;;;5061130;28;20024;-74
2022/12/02 08:35:46;;;;;;;10.38;6.88;;;;;;;;;;5060030;28;20028;-74
2022/12/02 08:38:12;;;;;;;10.85;6.65;;;;;;;;;;5056833;28;20308;-75
2022/12/02 08:40:38;;;;;;;9.07;6.13;;;;;;;;;;5071243;28;20047;-75
2022/12/02 08:43:05;;;;;;;17.25;11.23;;;;;;;;;;5062124;28;20189;-75
2022/12/02 08:45:31;;;;;;;18.85;12.07;;;;;;;;;;5058146;28;20095;-75
2022/12/02 08:47:57;;;;;;;19.48;11.90;;;;;;;;;;5061817;28;20016;-75
2022/12/02 08:50:23;;;;;;;22.90;8.98;;;;;;;;;;5060734;28;20033;-75
2022/12/02 08:52:49;;;;;;;10.77;6.68;;;;;;;;;;5060777;28;20108;-75
2022/12/02 08:55:16;;;;;;;8.70;5.80;;;;;;;;;;5064877;28;20031;-75
2022/12/02 08:57:42;;;;;;;7.55;5.55;;;;;;;;;;5061753;28;20493;-74
2022/12/02 09:00:08;;;;;;;9.00;4.78;;;;;;;;;;5060893;28;20024;-75
2022/12/02 09:02:35;;;;;;;7.00;4.72;;;;;;;;;;5060970;28;20113;-75
2022/12/02 09:05:01;;;;;;;5.43;4.32;;;;;;;;;;5060540;28;20043;-75
2022/12/02 09:07:27;;;;;;;7.43;4.82;;;;;;;;;;5056214;28;20021;-75
2022/12/02 09:09:53;;;;;;;7.57;4.30;;;;;;;;;;5058556;28;20025;-75
2022/12/02 09:12:20;;;;;;;6.63;4.85;;;;;;;;;;5067687;28;20016;-75
2022/12/02 09:14:46;;;;;;;9.38;4.97;;;;;;;;;;5067199;28;20700;-75
2022/12/02 09:17:12;;;;;;;8.20;5.43;;;;;;;;;;5063943;28;20032;-75
2022/12/02 09:19:38;;;;;;;7.03;5.38;;;;;;;;;;5062885;28;20017;-75
2022/12/02 09:22:05;;;;;;;12.60;5.57;;;;;;;;;;5062794;28;20044;-75
2022/12/02 09:24:32;;;;;;;6.25;5.28;;;;;;;;;;5055089;28;20025;-75
2022/12/02 09:26:58;;;;;;;9.02;5.47;;;;;;;;;;5059164;28;20050;-74
2022/12/02 09:29:24;;;;;;;6.60;4.50;;;;;;;;;;5057142;28;20036;-75
2022/12/02 09:31:50;;;;;;;10.20;4.93;;;;;;;;;;5064213;28;20064;-75
2022/12/02 09:34:16;;;;;;;7.13;4.65;;;;;;;;;;5061060;28;20024;-75
2022/12/02 09:36:43;;;;;;;7.00;4.70;;;;;;;;;;5058831;28;20059;-75
2022/12/02 09:39:09;;;;;;;8.48;5.00;;;;;;;;;;5066300;28;20028;-75
2022/12/02 09:41:36;;;;;;;10.48;5.40;;;;;;;;;;5058376;28;20806;-76
2022/12/02 09:44:02;;;;;;;6.50;4.93;;;;;;;;;;5061290;28;20063;-75
2022/12/02 09:46:29;;;;;;;7.40;5.00;;;;;;;;;;5061492;28;20165;-75
2022/12/02 09:48:55;;;;;;;5.47;4.30;;;;;;;;;;5064088;28;20052;-74
2022/12/02 09:51:21;;;;;;;6.93;4.47;;;;;;;;;;5061701;28;20415;-74
2022/12/02 09:53:47;;;;;;;7.43;5.03;;;;;;;;;;5057435;28;20671;-74
2022/12/02 09:56:18;;;;;;;7.65;4.70;;;;;;;;;;5062395;28;20358;-74
2022/12/02 09:58:45;;;;;;;8.27;4.93;;;;;;;;;;5060485;28;20052;-74
2022/12/02 10:01:12;;;;;;;7.30;4.70;;;;;;;;;;5064952;28;20484;-75
2022/12/02 10:03:39;;;;;;;9.15;4.90;;;;;;;;;;5059902;28;20474;-75
2022/12/02 10:06:12;;;;;;;9.40;4.95;;;;;;;;;;5069425;28;20097;-75
2022/12/02 10:08:39;;;;;;;6.95;5.03;;;;;;;;;;5064558;28;20031;-75
2022/12/02 10:11:05;;;;;;;7.68;5.32;;;;;;;;;;5068734;28;20047;-74
2022/12/02 10:13:33;;;;;;;6.90;5.03;;;;;;;;;;5061870;28;20096;-75
2022/12/02 10:16:01;;;;;;;7.55;4.88;;;;;;;;;;5061645;28;20831;-75
2022/12/02 10:18:30;;;;;;;7.53;5.07;;;;;;;;;;5058900;28;20021;-76
2022/12/02 10:20:56;;;;;;;7.65;4.85;;;;;;;;;;5059865;28;21641;-75
2022/12/02 10:23:23;;;;;;;8.38;5.35;;;;;;;;;;5064160;28;20036;-75
2022/12/02 10:25:54;;;;;;;8.88;5.20;;;;;;;;;;5059943;28;20051;-74
2022/12/02 10:28:22;;;;;;;7.00;4.57;;;;;;;;;;5058324;28;20381;-75
2022/12/02 10:30:50;;;;;;;9.20;4.75;;;;;;;;;;5057182;28;20024;-74
2022/12/02 10:33:16;;;;;;;8.82;5.03;;;;;;;;;;5071311;28;20025;-75
2022/12/02 10:35:44;;;;;;;7.78;4.90;;;;;;;;;;5062213;28;20016;-75
2022/12/02 10:38:29;;;;;;;7.60;4.82;;;;;;;;;;5059315;28;20020;-75
2022/12/02 10:41:14;;;;;;;7.88;4.72;;;;;;;;;;5059707;28;20043;-75
2022/12/02 10:44:04;;;;;;;7.35;4.82;;;;;;;;;;5062070;28;20033;-75
2022/12/02 10:46:30;;;;;;;6.30;4.57;;;;;;;;;;5056816;28;20561;-75
2022/12/02 10:49:14;;;;;;;8.95;5.30;;;;;;;;;;5062865;28;20552;-74
2022/12/02 10:51:40;;;;;;;5.65;4.03;;;;;;;;;;5061956;28;20028;-75
2022/12/02 10:54:09;;;;;;;8.75;4.57;;;;;;;;;;5063601;28;20035;-75
2022/12/02 10:56:36;;;;;;;7.25;4.25;;;;;;;;;;5055276;28;20131;-75
2022/12/02 10:59:02;;;;;;;5.68;3.95;;;;;;;;;;5064412;28;20028;-74
2022/12/02 11:01:28;;;;;;;6.55;4.03;;;;;;;;;;5063963;28;20067;-75
2022/12/02 11:03:55;;;;;;;6.63;4.68;;;;;;;;;;5063361;28;20016;-75
2022/12/02 11:06:21;;;;;;;6.25;4.35;;;;;;;;;;5062499;28;20051;-75
2022/12/02 11:08:48;;;;;;;4.80;4.18;;;;;;;;;;5060802;28;20020;-75
2022/12/02 11:11:34;;;;;;;7.22;4.22;;;;;;;;;;5064203;28;20024;-75
2022/12/02 11:14:04;;;;;;;7.05;4.15;;;;;;;;;;5057529;28;20029;-74
2022/12/02 11:16:37;;;;;;;7.10;3.83;;;;;;;;;;5059172;28;20085;-75
2022/12/02 11:19:23;;;;;;;7.63;4.70;;;;;;;;;;5057640;28;20032;-75
2022/12/02 11:21:49;;;;;;;5.47;4.00;;;;;;;;;;5053850;28;20031;-77
2022/12/02 11:24:22;;;;;;;6.15;4.38;;;;;;;;;;5064440;28;20636;-75
2022/12/02 11:27:03;;;;;;;7.32;4.30;;;;;;;;;;5059393;28;20035;-75
2022/12/02 11:29:30;;;;;;;6.03;3.78;;;;;;;;;;5061551;28;20062;-75
2022/12/02 11:32:01;;;;;;;6.70;4.07;;;;;;;;;;5058982;28;20477;-75
2022/12/02 11:34:39;;;;;;;9.57;4.68;;;;;;;;;;5059707;28;20031;-75
2022/12/02 11:37:28;;;;;;;7.10;4.03;;;;;;;;;;5056361;28;20094;-75
2022/12/02 11:39:56;;;;;;;4.82;3.90;;;;;;;;;;5053676;28;20083;-75
2022/12/02 11:42:22;;;;;;;6.97;4.35;;;;;;;;;;5059549;28;20162;-75
2022/12/02 11:44:48;;;;;;;7.40;4.22;;;;;;;;;;5058050;28;20027;-76
2022/12/02 11:47:31;;;;;;;6.97;4.50;;;;;;;;;;5054209;28;20228;-75
2022/12/02 11:50:16;;;;;;;7.38;4.78;;;;;;;;;;5061477;28;20036;-75
2022/12/02 11:52:43;;;;;;;5.40;3.72;;;;;;;;;;5066846;28;20079;-76
2022/12/02 11:55:12;;;;;;;8.30;4.80;;;;;;;;;;5058159;28;20078;-75
2022/12/02 11:57:44;;;;;;;5.10;4.15;;;;;;;;;;5057644;28;20025;-75
2022/12/02 12:00:19;;;;;;;7.40;4.70;;;;;;;;;;5053633;28;20035;-75
2022/12/02 12:02:45;;;;;;;5.50;3.90;;;;;;;;;;5059830;28;20033;-75
2022/12/02 12:05:12;;;;;;;5.50;3.97;;;;;;;;;;5060959;28;20581;-74
2022/12/02 12:07:41;;;;;;;6.63;4.07;;;;;;;;;;5073384;28;20044;-75
2022/12/02 12:10:22;;;;;;;6.57;4.05;;;;;;;;;;5057948;28;20048;-75
2022/12/02 12:13:07;;;;;;;5.22;3.90;;;;;;;;;;5061549;28;20020;-74
2022/12/02 12:15:49;;;;;;;6.13;3.85;;;;;;;;;;5058551;28;20034;-75
2022/12/02 12:18:34;;;;;;;4.82;3.63;;;;;;;;;;5054037;28;20646;-75
2022/12/02 12:21:00;;;;;;;4.78;3.50;;;;;;;;;;5056484;28;20033;-74
2022/12/02 12:23:28;;;;;;;6.28;3.50;;;;;;;;;;5053776;28;20042;-78
2022/12/02 12:25:54;;;;;;;5.03;3.28;;;;;;;;;;5052725;28;20388;-75
2022/12/02 12:28:24;;;;;;;5.20;3.95;;;;;;;;;;5064899;28;20073;-75
2022/12/02 12:30:50;;;;;;;4.97;3.75;;;;;;;;;;5061586;28;20017;-75
2022/12/02 12:33:16;;;;;;;7.32;4.05;;;;;;;;;;5060761;28;20472;-75
2022/12/02 12:35:43;;;;;;;4.97;3.85;;;;;;;;;;5059041;28;20044;-75
2022/12/02 12:38:09;;;;;;;5.72;4.05;;;;;;;;;;5057326;28;20016;-75
2022/12/02 12:40:35;;;;;;;8.02;4.88;;;;;;;;;;5059981;28;20028;-75
2022/12/02 12:43:01;;;;;;;5.35;3.78;;;;;;;;;;5062407;28;20039;-75
2022/12/02 12:45:27;;;;;;;5.88;4.15;;;;;;;;;;5060009;28;20023;-75
2022/12/02 12:47:53;;;;;;;5.75;4.22;;;;;;;;;;5061196;28;20059;-75
2022/12/02 12:50:19;;;;;;;6.55;4.57;;;;;;;;;;5066325;28;20063;-75
2022/12/02 12:52:46;;;;;;;13.77;4.80;;;;;;;;;;5064195;28;20032;-74
2022/12/02 12:55:12;;;;;;;7.43;3.60;;;;;;;;;;5063569;28;20103;-74
2022/12/02 12:57:38;;;;;;;7.30;4.10;;;;;;;;;;5061613;28;20090;-75
2022/12/02 13:00:04;;;;;;;5.18;3.88;;;;;;;;;;5058516;28;20070;-74
2022/12/02 13:02:30;;;;;;;6.97;3.88;;;;;;;;;;5062646;28;20116;-77
2022/12/02 13:04:57;;;;;;;8.18;4.50;;;;;;;;;;5059460;28;20082;-77
2022/12/02 13:07:23;;;;;;;10.63;5.18;;;;;;;;;;5059488;28;20077;-77
2022/12/02 13:09:49;;;;;;;13.20;5.57;;;;;;;;;;5058455;28;20025;-77
2022/12/02 13:12:15;;;;;;;12.15;5.43;;;;;;;;;;5068465;28;20412;-77
2022/12/02 13:14:41;;;;;;;11.80;4.53;;;;;;;;;;5063730;28;20454;-75
2022/12/02 13:17:07;;;;;;;7.10;4.50;;;;;;;;;;5059995;28;20017;-75
2022/12/02 13:19:33;;;;;;;5.35;3.78;;;;;;;;;;5060959;28;20032;-75
2022/12/02 13:22:00;;;;;;;6.40;4.15;;;;;;;;;;5065887;28;20181;-74
2022/12/02 13:24:26;;;;;;;4.47;4.03;;;;;;;;;;5059341;28;20029;-75
2022/12/02 13:26:52;;;;;;;4.68;3.55;;;;;;;;;;5057381;28;20434;-73
2022/12/02 13:29:18;;;;;;;5.32;3.75;;;;;;;;;;5061545;28;20499;-74
2022/12/02 13:31:44;;;;;;;6.80;4.00;;;;;;;;;;5064354;28;20594;-74
2022/12/02 13:34:10;;;;;;;3.85;3.45;;;;;;;;;;5063156;28;20794;-74
2022/12/02 13:36:36;;;;;;;5.63;4.00;;;;;;;;;;5059188;28;20593;-74
2022/12/02 13:39:03;;;;;;;4.53;3.90;;;;;;;;;;5065012;28;20397;-74
2022/12/02 13:41:29;;;;;;;4.60;3.88;;;;;;;;;;5060263;28;20093;-74
2022/12/02 13:43:55;;;;;;;5.35;3.90;;;;;;;;;;5062937;28;20028;-74
2022/12/02 13:46:21;;;;;;;5.50;3.65;;;;;;;;;;5061914;28;20024;-73
2022/12/02 13:48:47;;;;;;;4.78;3.80;;;;;;;;;;5055974;28;20097;-74
2022/12/02 13:51:14;;;;;;;5.47;3.53;;;;;;;;;;5061376;28;20029;-73
2022/12/02 13:53:42;;;;;;;4.32;3.63;;;;;;;;;;5059693;28;20017;-73
2022/12/02 13:56:08;;;;;;;7.25;3.78;;;;;;;;;;5062993;28;20376;-74
2022/12/02 13:58:34;;;;;;;4.82;3.40;;;;;;;;;;5049349;28;20025;-74
2022/12/02 14:01:01;;;;;;;5.30;3.28;;;;;;;;;;5063981;28;20394;-74
2022/12/02 14:03:27;;;;;;;6.95;3.72;;;;;;;;;;5060907;28;20501;-74
2022/12/02 14:05:53;;;;;;;3.80;3.15;;;;;;;;;;5067987;28;20021;-74
2022/12/02 14:08:19;;;;;;;4.78;3.63;;;;;;;;;;5063644;28;20032;-74
2022/12/02 14:10:45;;;;;;;3.33;2.58;;;;;;;;;;5061776;28;20026;-74
2022/12/02 14:13:12;;;;;;;4.45;3.30;;;;;;;;;;5064429;28;20064;-74
2022/12/02 14:15:38;;;;;;;3.70;3.10;;;;;;;;;;5071145;28;20040;-75
2022/12/02 14:18:04;;;;;;;4.68;3.17;;;;;;;;;;5065357;28;20028;-74
2022/12/02 14:20:30;;;;;;;4.38;3.40;;;;;;;;;;5066761;28;20027;-74
2022/12/02 14:22:57;;;;;;;6.03;3.15;;;;;;;;;;5073977;28;20054;-74
2022/12/02 14:25:23;;;;;;;5.90;3.70;;;;;;;;;;5066853;28;20029;-74
2022/12/02 14:27:49;;;;;;;4.03;3.30;;;;;;;;;;5062390;28;20043;-75
2022/12/02 14:30:15;;;;;;;7.55;3.30;;;;;;;;;;5067578;28;20024;-74
2022/12/02 14:32:41;;;;;;;4.55;3.63;;;;;;;;;;5066069;28;20032;-74
2022/12/02 14:35:08;;;;;;;5.07;3.10;;;;;;;;;;5060175;28;20066;-74
2022/12/02 14:37:34;;;;;;;5.10;3.08;;;;;;;;;;5061226;28;20559;-74
2022/12/02 14:40:03;;;;;;;3.92;3.10;;;;;;;;;;5057725;28;20039;-74
2022/12/02 14:42:29;;;;;;;3.97;3.00;;;;;;;;;;5061359;28;20397;-74
2022/12/02 14:44:55;;;;;;;6.00;2.92;;;;;;;;;;5059061;28;20849;-75
2022/12/02 14:47:21;;;;;;;4.40;2.78;;;;;;;;;;5060365;28;20549;-75
2022/12/02 14:49:47;;;;;;;3.63;3.00;;;;;;;;;;5061203;28;20389;-75
2022/12/02 14:52:13;;;;;;;5.47;3.10;;;;;;;;;;5059344;28;20432;-75
2022/12/02 14:54:40;;;;;;;3.88;2.85;;;;;;;;;;5063873;28;20090;-74